Aeroporto :
LOGIN :

Iscrizione | Disclaimer

   EN    FR    IT 

 










Sommario :    VFR   VFR Marginale   IFR   IFR Intensivo   IFR Molto Intensivo
Visibilità : 
Base nubi : 
>= 8 km
>= 3000ft
5 / 8 km
1000 / 3000 ft
1500m / 5 km
500 / 1000 ft
800 / 1500m
200 / 500 ft
< 800m
< 200 ft
Simboli :   Temporali  Nebbia  Neve Forte  Precipitazioni Forti  Vento > 20 kt
SIGMETs :   Varie  Temporali  Ghiacco  Turbolenza  Onda orograficha  Ceneri Vulcaniche






- Altitudine del aeroporto : 26 ft


ETNT - Wittmundhaven AB

ULTIMO METAR :
  • 291320Z 19007KT 2000 RA BR SCT005 BKN007 13/12 Q1014 YLO GRN TEMPO YLO

METARs OBSOLETI :
  • 291253Z 20008KT 3000 RA BR FEW005 BKN007 BKN030 13/11 Q1014 YLO GRN TEMPO YLO
  • 291233Z 19009KT 7000 FEW005 BKN007 BKN030 13/11 Q1014 GRN GRN TEMPO YLO
  • 291120Z 18009KT 9999 FEW005 BKN009 14/10 Q1014 GRN GRN TEMPO YLO
  • 291105Z 18009KT 9999 FEW005 BKN014 14/10 Q1014 GRN GRN TEMPO YLO

TAF TAF ETNT
Valido dal 29 a 11 ore il 29 a 20 ore UTC


291025Z 2911/2920 18007KT 9999 NSW FEW005 SCT020 BKN030
BECMG 2911/2913 18007KT 4000 -RA SCT005 BKN010
TEMPO 2913/2920 16007KT 2000 RADZ BKN003 OVC005 BY ETGL



MetMap, La meteo Aeronautica in un colpo d'occhio ! - Copyright ORBIFLY Dicembre 2007 - Disclaimer

ORBIFLY MET'MAP TEAM :

Programmazione e sviluppo : Alexandra Zaïnal
Concezione : Baudouin d'Aumeries
Aiuto per la programmazione : Marc-Olivier Méhu
Supporto tecnico e logistico : Manuel Goepfert
Aiuto per la traduzione : Arnaldo La Scala

Contatto : metmap@orbifly.com




FONTI E CREDITI :

   NOAA